createdAt,value
2019-01-30T00:00:55.724Z,984.62
2019-01-30T00:01:55.724Z,984.60
2019-01-30T00:02:55.701Z,984.58
2019-01-30T00:03:55.690Z,984.55
2019-01-30T00:04:55.684Z,984.45
2019-01-30T00:05:55.681Z,984.46
2019-01-30T00:06:55.686Z,984.41
2019-01-30T00:07:55.651Z,984.43
2019-01-30T00:08:55.636Z,984.42
2019-01-30T00:09:55.628Z,984.40
2019-01-30T00:10:55.615Z,984.42
2019-01-30T00:11:55.607Z,984.41
2019-01-30T00:12:55.646Z,984.40
2019-01-30T00:13:55.589Z,984.37
2019-01-30T00:14:55.578Z,984.35
2019-01-30T00:15:56.723Z,984.34
2019-01-30T00:16:55.550Z,984.28
2019-01-30T00:17:55.552Z,984.26
2019-01-30T00:18:55.526Z,984.24
2019-01-30T00:19:55.519Z,984.19
2019-01-30T00:20:55.504Z,984.19
2019-01-30T00:21:55.502Z,984.18
2019-01-30T00:22:55.495Z,984.15
2019-01-30T00:23:55.477Z,984.14
2019-01-30T00:24:55.464Z,984.14
2019-01-30T00:25:55.457Z,984.11
2019-01-30T00:26:55.446Z,984.10
2019-01-30T00:27:55.454Z,984.11
2019-01-30T00:28:55.421Z,984.12
2019-01-30T00:30:03.902Z,984.10
2019-01-30T00:30:56.399Z,984.05
2019-01-30T00:31:55.399Z,984.02
2019-01-30T00:32:55.395Z,984.05
2019-01-30T00:33:55.365Z,984.04
2019-01-30T00:34:55.355Z,984.04
2019-01-30T00:35:55.342Z,984.00
2019-01-30T00:36:55.331Z,984.00
2019-01-30T00:37:55.341Z,984.01
2019-01-30T00:38:55.311Z,983.98
2019-01-30T00:39:55.305Z,983.98
2019-01-30T00:40:55.288Z,983.98
2019-01-30T00:41:55.280Z,983.93
2019-01-30T00:42:55.281Z,983.90
2019-01-30T00:43:55.272Z,983.84
2019-01-30T00:44:55.273Z,983.77
2019-01-30T00:45:55.243Z,983.81
2019-01-30T00:46:55.224Z,983.78
2019-01-30T00:47:55.227Z,983.80
2019-01-30T00:48:55.202Z,983.78
2019-01-30T00:49:55.193Z,983.78
2019-01-30T00:50:55.183Z,983.80
2019-01-30T00:51:55.169Z,983.79
2019-01-30T00:52:55.183Z,983.79
2019-01-30T00:53:55.146Z,983.75
2019-01-30T00:54:55.140Z,983.72
2019-01-30T00:55:55.127Z,983.72
2019-01-30T00:56:55.130Z,983.74
2019-01-30T00:57:55.103Z,983.67
2019-01-30T00:58:55.105Z,983.64
2019-01-30T00:59:55.082Z,983.64
2019-01-30T01:00:55.072Z,983.60
2019-01-30T01:01:55.060Z,983.59
2019-01-30T01:02:55.051Z,983.57
2019-01-30T01:03:55.050Z,983.54
2019-01-30T01:04:55.027Z,983.49
2019-01-30T01:05:55.017Z,983.48
2019-01-30T01:06:55.004Z,983.45
2019-01-30T01:07:54.998Z,983.40
2019-01-30T01:08:54.999Z,983.43
2019-01-30T01:09:54.971Z,983.39
2019-01-30T01:10:54.961Z,983.38
2019-01-30T01:11:54.969Z,983.39
2019-01-30T01:12:54.939Z,983.41
2019-01-30T01:13:54.940Z,983.38
2019-01-30T01:14:54.931Z,983.34
2019-01-30T01:15:54.906Z,983.28
2019-01-30T01:16:54.895Z,983.33
2019-01-30T01:17:54.886Z,983.24
2019-01-30T01:18:54.893Z,983.26
2019-01-30T01:19:54.863Z,983.25
2019-01-30T01:20:54.857Z,983.22
2019-01-30T01:21:54.839Z,983.23
2019-01-30T01:22:54.831Z,983.19
2019-01-30T01:23:54.839Z,983.18
2019-01-30T01:24:54.808Z,983.19
2019-01-30T01:25:54.802Z,983.17
2019-01-30T01:26:54.796Z,983.17
2019-01-30T01:27:54.777Z,983.20
2019-01-30T01:28:54.767Z,983.22
2019-01-30T01:29:54.766Z,983.20
2019-01-30T01:30:54.747Z,983.22
2019-01-30T01:31:54.738Z,983.20
2019-01-30T01:32:54.726Z,983.22
2019-01-30T01:33:54.713Z,983.24
2019-01-30T01:34:54.713Z,983.21
2019-01-30T01:35:54.691Z,983.19
2019-01-30T01:36:54.688Z,983.19
2019-01-30T01:37:54.672Z,983.21
2019-01-30T01:38:54.711Z,983.18
2019-01-30T01:39:54.661Z,983.16
2019-01-30T01:40:54.635Z,983.16
2019-01-30T01:41:54.624Z,983.16
2019-01-30T01:42:54.620Z,983.14
2019-01-30T01:43:54.605Z,983.09
2019-01-30T01:44:54.607Z,983.07
2019-01-30T01:45:54.580Z,983.05
2019-01-30T01:46:54.571Z,983.00
2019-01-30T01:47:54.562Z,982.95
2019-01-30T01:48:54.554Z,982.94
2019-01-30T01:49:54.562Z,982.87
2019-01-30T01:50:54.537Z,982.85
2019-01-30T01:51:54.518Z,982.85
2019-01-30T01:52:54.504Z,982.81
2019-01-30T01:53:54.496Z,982.81
2019-01-30T01:54:54.484Z,982.80
2019-01-30T01:55:54.483Z,982.76
2019-01-30T01:56:54.462Z,982.75
2019-01-30T01:57:54.450Z,982.72
2019-01-30T01:58:54.442Z,982.64
2019-01-30T01:59:54.462Z,982.67
2019-01-30T02:00:54.435Z,982.69
2019-01-30T02:01:54.411Z,982.63
2019-01-30T02:02:54.395Z,982.56
2019-01-30T02:03:54.385Z,982.53
2019-01-30T02:04:54.375Z,982.49
2019-01-30T02:05:54.376Z,982.50
2019-01-30T02:06:54.353Z,982.49
2019-01-30T02:07:54.345Z,982.40
2019-01-30T02:08:54.334Z,982.39
2019-01-30T02:09:54.320Z,982.39
2019-01-30T02:10:54.329Z,982.33
2019-01-30T02:11:54.312Z,982.31
2019-01-30T02:12:54.288Z,982.29
2019-01-30T02:13:54.281Z,982.27
2019-01-30T02:14:54.268Z,982.22
2019-01-30T02:15:54.284Z,982.25
2019-01-30T02:16:54.248Z,982.18
2019-01-30T02:17:54.235Z,982.18
2019-01-30T02:18:54.223Z,982.14
2019-01-30T02:19:54.216Z,982.12
2019-01-30T02:20:54.203Z,982.08
2019-01-30T02:21:54.208Z,982.04
2019-01-30T02:22:54.181Z,982.03
2019-01-30T02:23:54.181Z,981.99
2019-01-30T02:24:54.158Z,981.97
2019-01-30T02:25:54.152Z,981.97
2019-01-30T02:26:54.151Z,981.99
2019-01-30T02:27:54.127Z,981.95
2019-01-30T02:28:54.115Z,981.93
2019-01-30T02:29:54.106Z,981.89
2019-01-30T02:30:54.094Z,981.87
2019-01-30T02:31:54.099Z,981.83
2019-01-30T02:32:54.078Z,981.84
2019-01-30T02:33:54.076Z,981.85
2019-01-30T02:34:54.058Z,981.84
2019-01-30T02:35:54.045Z,981.79
2019-01-30T02:36:54.059Z,981.79
2019-01-30T02:37:54.022Z,981.80
2019-01-30T02:38:54.008Z,981.75
2019-01-30T02:39:54.001Z,981.79
2019-01-30T02:40:53.990Z,981.80
2019-01-30T02:41:53.987Z,981.80
2019-01-30T02:42:53.962Z,981.81
2019-01-30T02:43:53.952Z,981.76
2019-01-30T02:44:53.942Z,981.75
2019-01-30T02:45:53.942Z,981.78
2019-01-30T02:46:53.957Z,981.78
2019-01-30T02:47:53.916Z,981.78
2019-01-30T02:48:53.899Z,981.77
2019-01-30T02:49:53.891Z,981.70
2019-01-30T02:50:53.900Z,981.67
2019-01-30T02:51:53.896Z,981.63
2019-01-30T02:52:53.857Z,981.63
2019-01-30T02:53:53.845Z,981.63
2019-01-30T02:54:53.836Z,981.57
2019-01-30T02:55:53.825Z,981.60
2019-01-30T02:56:53.812Z,981.60
2019-01-30T02:57:53.831Z,981.60
2019-01-30T02:58:53.792Z,981.61
2019-01-30T02:59:53.779Z,981.62
2019-01-30T03:00:59.261Z,981.64
2019-01-30T03:01:54.762Z,981.67
2019-01-30T03:02:53.767Z,981.67
2019-01-30T03:03:53.738Z,981.65
2019-01-30T03:04:53.728Z,981.64
2019-01-30T03:05:53.717Z,981.62
2019-01-30T03:06:53.703Z,981.59
2019-01-30T03:07:53.707Z,981.61
2019-01-30T03:08:53.694Z,981.60
2019-01-30T03:09:53.686Z,981.55
2019-01-30T03:10:53.661Z,981.52
2019-01-30T03:11:53.652Z,981.52
2019-01-30T03:12:53.653Z,981.45
2019-01-30T03:13:53.634Z,981.49
2019-01-30T03:14:53.615Z,981.45
2019-01-30T03:15:53.605Z,981.42
2019-01-30T03:16:53.594Z,981.41
2019-01-30T03:17:53.595Z,981.37
2019-01-30T03:18:53.576Z,981.41
2019-01-30T03:19:53.565Z,981.39
2019-01-30T03:20:53.554Z,981.29
2019-01-30T03:21:53.545Z,981.36
2019-01-30T03:22:53.543Z,981.30
2019-01-30T03:23:53.519Z,981.24
2019-01-30T03:24:53.511Z,981.22
2019-01-30T03:25:53.499Z,981.23
2019-01-30T03:26:53.486Z,981.22
2019-01-30T03:27:53.486Z,981.25
2019-01-30T03:28:53.557Z,981.21
2019-01-30T03:29:53.452Z,981.23
2019-01-30T03:30:53.453Z,981.20
2019-01-30T03:31:53.444Z,981.28
2019-01-30T03:32:53.699Z,981.18
2019-01-30T03:33:53.408Z,981.21
2019-01-30T03:34:53.397Z,981.25
2019-01-30T03:35:53.387Z,981.20
2019-01-30T03:36:53.380Z,981.20
2019-01-30T03:37:53.384Z,981.17
2019-01-30T03:38:53.353Z,981.18
2019-01-30T03:39:53.343Z,981.13
2019-01-30T03:40:53.331Z,981.12
2019-01-30T03:41:53.320Z,981.13
2019-01-30T03:42:53.338Z,981.12
2019-01-30T03:43:53.425Z,981.06
2019-01-30T03:44:53.308Z,981.09
2019-01-30T03:45:53.275Z,981.07
2019-01-30T03:46:53.267Z,981.11
2019-01-30T03:47:53.255Z,981.16
2019-01-30T03:48:53.255Z,981.23
2019-01-30T03:49:53.236Z,981.26
2019-01-30T03:50:53.239Z,981.24
2019-01-30T03:51:53.210Z,981.24
2019-01-30T03:52:53.197Z,981.25
2019-01-30T03:53:53.239Z,981.22
2019-01-30T03:54:53.176Z,981.25
2019-01-30T03:55:53.174Z,981.26
2019-01-30T03:56:53.155Z,981.20
2019-01-30T03:57:53.153Z,981.22
2019-01-30T03:58:53.157Z,981.17
2019-01-30T03:59:53.120Z,981.17
2019-01-30T04:00:53.113Z,981.19
2019-01-30T04:01:53.098Z,981.13
2019-01-30T04:02:53.095Z,981.08
2019-01-30T04:03:53.091Z,981.02
2019-01-30T04:04:53.170Z,981.14
2019-01-30T04:05:53.051Z,981.18
2019-01-30T04:06:53.041Z,981.16
2019-01-30T04:07:53.032Z,981.20
2019-01-30T04:08:53.033Z,981.15
2019-01-30T04:09:53.010Z,981.09
2019-01-30T04:10:52.996Z,981.06
2019-01-30T04:11:52.995Z,981.04
2019-01-30T04:12:52.993Z,981.02
2019-01-30T04:13:52.966Z,981.06
2019-01-30T04:14:52.970Z,981.04
2019-01-30T04:15:52.947Z,981.03
2019-01-30T04:16:52.933Z,981.03
2019-01-30T04:17:52.922Z,981.05
2019-01-30T04:18:52.935Z,981.04
2019-01-30T04:19:52.913Z,980.97
2019-01-30T04:20:52.891Z,981.07
2019-01-30T04:21:52.876Z,981.08
2019-01-30T04:22:52.868Z,981.05
2019-01-30T04:23:52.856Z,981.05
2019-01-30T04:24:52.861Z,981.06
2019-01-30T04:25:52.837Z,981.00
2019-01-30T04:26:52.830Z,981.02
2019-01-30T04:27:52.812Z,981.02
2019-01-30T04:28:52.802Z,980.98
2019-01-30T04:29:52.803Z,981.01
2019-01-30T04:30:52.779Z,980.98
2019-01-30T04:31:52.767Z,981.01
2019-01-30T04:32:52.762Z,981.01
2019-01-30T04:33:52.757Z,981.05
2019-01-30T04:34:52.761Z,980.99
2019-01-30T04:35:52.725Z,980.98
2019-01-30T04:36:52.719Z,980.97
2019-01-30T04:37:52.709Z,981.00
2019-01-30T04:38:52.690Z,981.01
2019-01-30T04:39:52.679Z,980.96
2019-01-30T04:40:52.683Z,980.96
2019-01-30T04:41:52.664Z,980.99
2019-01-30T04:42:52.653Z,980.94
2019-01-30T04:43:52.635Z,981.00
2019-01-30T04:44:52.625Z,980.93
2019-01-30T04:45:52.628Z,980.98
2019-01-30T04:46:52.604Z,980.93
2019-01-30T04:47:52.590Z,980.93
2019-01-30T04:48:52.581Z,980.94
2019-01-30T04:49:52.580Z,980.93
2019-01-30T04:50:52.569Z,980.91
2019-01-30T04:51:52.547Z,980.95
2019-01-30T04:52:52.535Z,980.89
2019-01-30T04:53:52.527Z,980.92
2019-01-30T04:54:52.523Z,980.92
2019-01-30T04:55:52.519Z,980.89
2019-01-30T04:56:52.491Z,980.89
2019-01-30T04:57:52.479Z,980.94
2019-01-30T04:58:52.475Z,980.91
2019-01-30T04:59:52.456Z,980.86
2019-01-30T05:00:52.463Z,980.89
2019-01-30T05:01:52.439Z,980.82
2019-01-30T05:02:52.426Z,980.81
2019-01-30T05:03:52.417Z,980.76
2019-01-30T05:04:52.407Z,980.73
2019-01-30T05:05:52.408Z,980.74
2019-01-30T05:06:52.386Z,980.74
2019-01-30T05:07:52.399Z,980.70
2019-01-30T05:08:52.487Z,980.66
2019-01-30T05:09:52.353Z,980.71
2019-01-30T05:10:52.354Z,980.76
2019-01-30T05:11:52.330Z,980.70
2019-01-30T05:12:52.320Z,980.71
2019-01-30T05:13:52.302Z,980.73
2019-01-30T05:14:52.293Z,980.71
2019-01-30T05:15:52.295Z,980.73
2019-01-30T05:16:52.275Z,980.75
2019-01-30T05:17:52.264Z,980.69
2019-01-30T05:18:52.258Z,980.72
2019-01-30T05:19:52.239Z,980.72
2019-01-30T05:20:52.244Z,980.68
2019-01-30T05:21:52.218Z,980.72
2019-01-30T05:22:52.214Z,980.68
2019-01-30T05:23:52.198Z,980.64
2019-01-30T05:24:52.193Z,980.69
2019-01-30T05:25:52.183Z,980.63
2019-01-30T05:26:52.164Z,980.63
2019-01-30T05:27:52.168Z,980.57
2019-01-30T05:28:52.139Z,980.57
2019-01-30T05:29:52.128Z,980.57
2019-01-30T05:30:52.118Z,980.49
2019-01-30T05:32:00.907Z,980.45
2019-01-30T05:32:53.108Z,980.45
2019-01-30T05:33:52.092Z,980.48
2019-01-30T05:34:52.077Z,980.43
2019-01-30T05:35:52.072Z,980.43
2019-01-30T05:36:52.085Z,980.38
2019-01-30T05:37:52.045Z,980.34
2019-01-30T05:38:52.033Z,980.33
2019-01-30T05:39:52.018Z,980.33
2019-01-30T05:40:52.010Z,980.37
2019-01-30T05:41:52.017Z,980.33
2019-01-30T05:42:52.007Z,980.37
2019-01-30T05:43:51.985Z,980.37
2019-01-30T05:44:51.965Z,980.35
2019-01-30T05:45:51.954Z,980.36
2019-01-30T05:46:51.956Z,980.30
2019-01-30T05:47:51.944Z,980.26
2019-01-30T05:48:51.930Z,980.27
2019-01-30T05:49:51.915Z,980.23
2019-01-30T05:50:51.902Z,980.23
2019-01-30T05:51:51.909Z,980.21
2019-01-30T05:52:51.878Z,980.15
2019-01-30T05:53:51.870Z,980.13
2019-01-30T05:54:51.858Z,980.12
2019-01-30T05:55:51.844Z,980.13
2019-01-30T05:56:51.852Z,980.18
2019-01-30T05:57:51.822Z,980.17
2019-01-30T05:58:51.816Z,980.14
2019-01-30T05:59:51.802Z,980.10
2019-01-30T06:00:51.789Z,980.10
2019-01-30T06:01:51.777Z,980.14
2019-01-30T06:02:51.787Z,980.11
2019-01-30T06:03:51.759Z,980.15
2019-01-30T06:04:51.801Z,980.12
2019-01-30T06:05:51.732Z,980.15
2019-01-30T06:06:51.724Z,980.20
2019-01-30T06:07:51.722Z,980.13
2019-01-30T06:08:51.701Z,980.12
2019-01-30T06:09:51.688Z,980.10
2019-01-30T06:10:51.682Z,980.11
2019-01-30T06:11:51.674Z,980.10
2019-01-30T06:12:51.675Z,980.11
2019-01-30T06:13:51.644Z,980.07
2019-01-30T06:14:51.634Z,980.07
2019-01-30T06:15:51.624Z,980.07
2019-01-30T06:16:51.611Z,980.06
2019-01-30T06:17:51.614Z,980.07
2019-01-30T06:18:51.590Z,980.06
2019-01-30T06:19:51.577Z,979.96
2019-01-30T06:20:51.569Z,979.98
2019-01-30T06:21:51.556Z,979.94
2019-01-30T06:22:51.558Z,979.93
2019-01-30T06:23:51.540Z,979.93
2019-01-30T06:24:51.530Z,979.93
2019-01-30T06:25:51.521Z,979.91
2019-01-30T06:26:51.523Z,979.85
2019-01-30T06:27:51.509Z,979.84
2019-01-30T06:28:51.480Z,979.81
2019-01-30T06:29:51.479Z,979.75
2019-01-30T06:30:51.458Z,979.75
2019-01-30T06:31:51.458Z,979.76
2019-01-30T06:32:51.451Z,979.75
2019-01-30T06:33:51.424Z,979.71
2019-01-30T06:34:51.416Z,979.74
2019-01-30T06:35:51.414Z,979.74
2019-01-30T06:36:51.393Z,979.73
2019-01-30T06:37:51.408Z,979.73
2019-01-30T06:38:51.371Z,979.77
2019-01-30T06:39:51.373Z,979.77
2019-01-30T06:40:51.361Z,979.79
2019-01-30T06:41:51.348Z,979.74
2019-01-30T06:42:51.329Z,979.77
2019-01-30T06:43:51.333Z,979.75
2019-01-30T06:44:51.306Z,979.74
2019-01-30T06:45:51.300Z,979.71
2019-01-30T06:46:51.289Z,979.72
2019-01-30T06:47:51.279Z,979.69
2019-01-30T06:48:51.284Z,979.69
2019-01-30T06:49:51.258Z,979.66
2019-01-30T06:50:51.240Z,979.66
2019-01-30T06:51:51.235Z,979.54
2019-01-30T06:52:51.219Z,979.55
2019-01-30T06:53:51.249Z,979.51
2019-01-30T06:54:51.202Z,979.52
2019-01-30T06:55:51.190Z,979.53
2019-01-30T06:56:51.176Z,979.51
2019-01-30T06:57:51.169Z,979.53
2019-01-30T06:58:51.180Z,979.48
2019-01-30T06:59:51.166Z,979.54
2019-01-30T07:00:52.824Z,979.52
2019-01-30T07:01:51.121Z,979.54
2019-01-30T07:02:51.117Z,979.49
2019-01-30T07:03:51.118Z,979.54
2019-01-30T07:04:51.091Z,979.54
2019-01-30T07:05:51.139Z,979.49
2019-01-30T07:06:51.075Z,979.54
2019-01-30T07:07:51.054Z,979.50
2019-01-30T07:08:51.066Z,979.52
2019-01-30T07:09:51.038Z,979.52
2019-01-30T07:10:51.029Z,979.56
2019-01-30T07:11:51.013Z,979.55
2019-01-30T07:12:50.996Z,979.55
2019-01-30T07:13:51.020Z,979.57
2019-01-30T07:14:50.983Z,979.59
2019-01-30T07:15:50.966Z,979.60
2019-01-30T07:16:50.980Z,979.63
2019-01-30T07:17:50.962Z,979.63
2019-01-30T07:18:50.930Z,979.63
2019-01-30T07:19:50.935Z,979.67
2019-01-30T07:20:50.908Z,979.67
2019-01-30T07:21:50.908Z,979.63
2019-01-30T07:22:50.894Z,979.64
2019-01-30T07:23:50.880Z,979.63
2019-01-30T07:24:50.877Z,979.66
2019-01-30T07:25:50.851Z,979.67
2019-01-30T07:26:50.842Z,979.69
2019-01-30T07:27:50.836Z,979.65
2019-01-30T07:28:50.841Z,979.68
2019-01-30T07:29:50.870Z,979.73
2019-01-30T07:30:50.797Z,979.69
2019-01-30T07:31:50.784Z,979.78
2019-01-30T07:32:50.779Z,979.82
2019-01-30T07:33:50.772Z,979.80
2019-01-30T07:34:50.811Z,979.80
2019-01-30T07:35:50.742Z,979.76
2019-01-30T07:36:50.732Z,979.82
2019-01-30T07:37:50.740Z,979.82
2019-01-30T07:38:50.708Z,979.83
2019-01-30T07:39:50.710Z,979.82
2019-01-30T07:40:50.691Z,979.81
2019-01-30T07:41:50.670Z,979.87
2019-01-30T07:42:50.663Z,979.90
2019-01-30T07:43:50.652Z,979.87
2019-01-30T07:44:51.237Z,979.90
2019-01-30T07:45:50.655Z,979.93
2019-01-30T07:46:50.640Z,979.93
2019-01-30T07:47:50.611Z,979.95
2019-01-30T07:48:50.603Z,979.97
2019-01-30T07:49:50.795Z,980.00
2019-01-30T07:50:50.572Z,980.00
2019-01-30T07:51:50.583Z,980.00
2019-01-30T07:52:50.552Z,980.04
2019-01-30T07:53:50.537Z,980.02
2019-01-30T07:54:50.545Z,980.01
2019-01-30T07:55:50.530Z,980.07
2019-01-30T07:56:50.509Z,980.17
2019-01-30T07:57:50.493Z,980.09
2019-01-30T07:58:50.483Z,980.10
2019-01-30T07:59:50.472Z,980.12
2019-01-30T08:00:50.470Z,980.16
2019-01-30T08:01:50.453Z,980.14
2019-01-30T08:02:53.473Z,980.16
2019-01-30T08:03:50.429Z,980.20
2019-01-30T08:04:50.420Z,980.19
2019-01-30T08:05:50.419Z,980.25
2019-01-30T08:06:50.394Z,980.21
2019-01-30T08:07:50.390Z,980.21
2019-01-30T08:08:50.383Z,980.22
2019-01-30T08:09:50.361Z,980.22
2019-01-30T08:10:50.371Z,980.26
2019-01-30T08:11:50.339Z,980.29
2019-01-30T08:12:50.333Z,980.34
2019-01-30T08:13:50.421Z,980.24
2019-01-30T08:14:50.306Z,980.35
2019-01-30T08:15:50.309Z,980.30
2019-01-30T08:16:50.290Z,980.35
2019-01-30T08:17:50.273Z,980.38
2019-01-30T08:18:50.285Z,980.34
2019-01-30T08:19:51.977Z,980.32
2019-01-30T08:20:50.263Z,980.37
2019-01-30T08:21:50.233Z,980.32
2019-01-30T08:22:50.218Z,980.34
2019-01-30T08:23:50.638Z,980.35
2019-01-30T08:24:50.367Z,980.32
2019-01-30T08:25:50.553Z,980.37
2019-01-30T08:26:50.217Z,980.42
2019-01-30T08:27:50.329Z,980.45
2019-01-30T08:28:50.306Z,980.41
2019-01-30T08:29:50.479Z,980.38
2019-01-30T08:30:50.399Z,980.41
2019-01-30T08:31:50.186Z,980.45
2019-01-30T08:32:50.149Z,980.39
2019-01-30T08:33:50.093Z,980.39
2019-01-30T08:34:50.083Z,980.43
2019-01-30T08:35:50.181Z,980.51
2019-01-30T08:36:50.070Z,980.47
2019-01-30T08:37:50.051Z,980.39
2019-01-30T08:38:50.040Z,980.45
2019-01-30T08:39:50.029Z,980.44
2019-01-30T08:40:50.044Z,980.50
2019-01-30T08:41:50.007Z,980.55
2019-01-30T08:42:52.118Z,980.52
2019-01-30T08:43:49.984Z,980.56
2019-01-30T08:44:49.972Z,980.55
2019-01-30T08:45:49.960Z,980.54
2019-01-30T08:46:49.971Z,980.51
2019-01-30T08:47:49.956Z,980.56
2019-01-30T08:48:49.937Z,980.51
2019-01-30T08:49:49.918Z,980.47
2019-01-30T08:50:49.910Z,980.50
2019-01-30T08:51:49.910Z,980.49
2019-01-30T08:52:49.895Z,980.50
2019-01-30T08:53:49.874Z,980.42
2019-01-30T08:54:49.867Z,980.44
2019-01-30T08:55:49.852Z,980.46
2019-01-30T08:56:53.103Z,980.47
2019-01-30T08:57:49.841Z,980.45
2019-01-30T08:58:49.831Z,980.51
2019-01-30T08:59:49.812Z,980.51
2019-01-30T09:00:49.799Z,980.50
2019-01-30T09:01:49.808Z,980.51
2019-01-30T09:02:49.781Z,980.50
2019-01-30T09:03:49.782Z,980.54
2019-01-30T09:04:49.755Z,980.49
2019-01-30T09:05:49.767Z,980.51
2019-01-30T09:06:49.750Z,980.54
2019-01-30T09:07:49.720Z,980.54
2019-01-30T09:08:49.737Z,980.56
2019-01-30T09:09:49.742Z,980.44
2019-01-30T09:10:49.691Z,980.49
2019-01-30T09:11:49.683Z,980.49
2019-01-30T09:12:49.678Z,980.45
2019-01-30T09:13:49.653Z,980.45
2019-01-30T09:14:49.646Z,980.46
2019-01-30T09:15:49.631Z,980.46
2019-01-30T09:16:49.645Z,980.45
2019-01-30T09:17:49.626Z,980.47
2019-01-30T09:18:49.607Z,980.41
2019-01-30T09:19:49.595Z,980.48
2019-01-30T09:20:49.598Z,980.41
2019-01-30T09:21:49.565Z,980.40
2019-01-30T09:22:49.570Z,980.39
2019-01-30T09:23:49.542Z,980.40
2019-01-30T09:24:49.531Z,980.44
2019-01-30T09:25:49.519Z,980.42
2019-01-30T09:26:49.519Z,980.44
2019-01-30T09:27:49.520Z,980.45
2019-01-30T09:28:49.492Z,980.47
2019-01-30T09:29:49.477Z,980.50
2019-01-30T09:30:49.465Z,980.49
2019-01-30T09:31:49.462Z,980.48
2019-01-30T09:32:49.471Z,980.53
2019-01-30T09:33:49.433Z,980.49
2019-01-30T09:34:49.427Z,980.57
2019-01-30T09:35:49.408Z,980.55
2019-01-30T09:36:49.401Z,980.49
2019-01-30T09:37:49.404Z,980.56
2019-01-30T09:38:49.384Z,980.53
2019-01-30T09:39:49.434Z,980.56
2019-01-30T09:40:49.353Z,980.54
2019-01-30T09:41:49.351Z,980.51
2019-01-30T09:42:49.375Z,980.55
2019-01-30T09:43:49.323Z,980.51
2019-01-30T09:44:49.323Z,980.59
2019-01-30T09:45:49.300Z,980.55
2019-01-30T09:46:49.291Z,980.53
2019-01-30T09:47:49.331Z,980.59
2019-01-30T09:48:49.267Z,980.56
2019-01-30T09:49:49.324Z,980.60
2019-01-30T09:50:49.280Z,980.66
2019-01-30T09:51:49.233Z,980.64
2019-01-30T09:52:49.225Z,980.64
2019-01-30T09:53:49.228Z,980.64
2019-01-30T09:54:49.275Z,980.65
2019-01-30T09:55:49.252Z,980.74
2019-01-30T09:56:49.176Z,980.67
2019-01-30T09:57:49.167Z,980.70
2019-01-30T09:58:49.168Z,980.75
2019-01-30T09:59:49.146Z,980.73
2019-01-30T10:00:49.136Z,980.70
2019-01-30T10:01:49.131Z,980.75
2019-01-30T10:02:49.114Z,980.75
2019-01-30T10:03:49.115Z,980.74
2019-01-30T10:04:49.099Z,980.69
2019-01-30T10:05:49.077Z,980.82
2019-01-30T10:06:49.074Z,980.76
2019-01-30T10:07:49.058Z,980.76
2019-01-30T10:08:49.063Z,980.82
2019-01-30T10:09:49.035Z,980.82
2019-01-30T10:10:49.028Z,980.79
2019-01-30T10:11:49.017Z,980.81
2019-01-30T10:12:49.009Z,980.83
2019-01-30T10:13:49.014Z,980.82
2019-01-30T10:14:48.980Z,980.83
2019-01-30T10:15:48.968Z,980.82
2019-01-30T10:16:48.959Z,980.82
2019-01-30T10:17:48.949Z,980.88
2019-01-30T10:18:48.957Z,980.91
2019-01-30T10:19:48.930Z,980.88
2019-01-30T10:20:48.913Z,980.90
2019-01-30T10:21:48.902Z,980.89
2019-01-30T10:22:48.897Z,980.89
2019-01-30T10:23:48.910Z,980.88
2019-01-30T10:24:50.532Z,980.90
2019-01-30T10:25:48.872Z,980.89
2019-01-30T10:26:48.880Z,980.90
2019-01-30T10:27:48.834Z,980.92
2019-01-30T10:28:48.846Z,980.94
2019-01-30T10:29:48.823Z,980.96
2019-01-30T10:30:48.843Z,980.87
2019-01-30T10:31:48.800Z,980.92
2019-01-30T10:32:48.785Z,980.91
2019-01-30T10:33:48.792Z,980.92
2019-01-30T10:34:48.759Z,980.90
2019-01-30T10:35:48.748Z,980.91
2019-01-30T10:36:48.738Z,980.89
2019-01-30T10:37:48.740Z,980.91
2019-01-30T10:38:48.716Z,980.93
2019-01-30T10:39:48.720Z,980.92
2019-01-30T10:40:48.703Z,980.94
2019-01-30T10:41:48.688Z,980.91
2019-01-30T10:42:48.675Z,980.91
2019-01-30T10:43:48.668Z,980.94
2019-01-30T10:44:48.692Z,980.94
2019-01-30T10:45:48.637Z,980.93
2019-01-30T10:46:48.628Z,980.96
2019-01-30T10:47:48.614Z,980.93
2019-01-30T10:48:48.607Z,980.91
2019-01-30T10:49:48.619Z,980.94
2019-01-30T10:50:48.582Z,980.93
2019-01-30T10:51:48.574Z,980.93
2019-01-30T10:52:48.569Z,980.92
2019-01-30T10:53:48.548Z,980.91
2019-01-30T10:54:48.558Z,980.98
2019-01-30T10:55:48.527Z,980.93
2019-01-30T10:56:48.528Z,980.91
2019-01-30T10:57:48.510Z,980.91
2019-01-30T10:58:48.497Z,980.91
2019-01-30T10:59:48.501Z,980.93
2019-01-30T11:00:48.472Z,980.91
2019-01-30T11:01:48.459Z,980.93
2019-01-30T11:02:48.455Z,980.88
2019-01-30T11:03:57.127Z,980.92
2019-01-30T11:04:49.449Z,980.92
2019-01-30T11:05:48.418Z,980.93
2019-01-30T11:06:48.406Z,980.94
2019-01-30T11:07:48.394Z,980.92
2019-01-30T11:08:48.385Z,980.95
2019-01-30T11:09:48.374Z,980.97
2019-01-30T11:10:50.830Z,980.96
2019-01-30T11:11:48.351Z,981.01
2019-01-30T11:12:48.339Z,980.99
2019-01-30T11:13:48.335Z,980.98
2019-01-30T11:14:48.324Z,980.95
2019-01-30T11:15:48.317Z,980.95
2019-01-30T11:16:48.299Z,980.92
2019-01-30T11:17:48.296Z,980.93
2019-01-30T11:18:48.286Z,980.91
2019-01-30T11:19:48.267Z,980.94
2019-01-30T11:20:48.278Z,980.93
2019-01-30T11:21:48.241Z,980.91
2019-01-30T11:22:48.231Z,980.86
2019-01-30T11:23:48.226Z,980.97
2019-01-30T11:24:48.208Z,980.93
2019-01-30T11:25:48.212Z,980.94
2019-01-30T11:26:48.187Z,980.91
2019-01-30T11:27:48.172Z,980.90
2019-01-30T11:28:48.165Z,980.96
2019-01-30T11:29:48.167Z,980.89
2019-01-30T11:30:48.159Z,980.99
2019-01-30T11:31:48.132Z,980.89
2019-01-30T11:32:48.119Z,980.91
2019-01-30T11:33:48.119Z,980.97
2019-01-30T11:34:48.096Z,980.87
2019-01-30T11:35:48.099Z,980.96
2019-01-30T11:36:48.075Z,980.84
2019-01-30T11:37:48.133Z,980.91
2019-01-30T11:38:48.053Z,980.83
2019-01-30T11:39:48.088Z,980.91
2019-01-30T11:40:48.050Z,980.90
2019-01-30T11:41:48.041Z,980.98
2019-01-30T11:42:48.010Z,980.91
2019-01-30T11:43:47.998Z,981.02
2019-01-30T11:44:47.987Z,981.04
2019-01-30T11:45:47.993Z,980.93
2019-01-30T11:46:47.985Z,980.87
2019-01-30T11:47:48.001Z,980.91
2019-01-30T11:48:56.190Z,980.99
2019-01-30T11:49:48.943Z,980.93
2019-01-30T11:50:47.943Z,980.89
2019-01-30T11:51:47.908Z,980.87
2019-01-30T11:52:47.900Z,980.95
2019-01-30T11:53:47.892Z,980.94
2019-01-30T11:54:47.883Z,981.02
2019-01-30T11:55:48.053Z,980.99
2019-01-30T11:56:47.853Z,981.02
2019-01-30T11:57:47.845Z,981.04
2019-01-30T11:58:47.835Z,981.06
2019-01-30T11:59:47.825Z,981.07
2019-01-30T12:00:47.816Z,981.02
2019-01-30T12:01:47.832Z,981.05
2019-01-30T12:02:48.329Z,981.07
2019-01-30T12:03:47.778Z,981.06
2019-01-30T12:04:47.789Z,981.15
2019-01-30T12:05:47.762Z,981.08
2019-01-30T12:06:47.764Z,981.12
2019-01-30T12:07:47.745Z,981.11
2019-01-30T12:08:47.725Z,981.13
2019-01-30T12:09:47.712Z,981.09
2019-01-30T12:10:47.702Z,981.15
2019-01-30T12:11:47.707Z,981.10
2019-01-30T12:12:47.679Z,981.12
2019-01-30T12:13:47.672Z,981.10
2019-01-30T12:14:47.678Z,981.12
2019-01-30T12:15:47.650Z,981.18
2019-01-30T12:16:47.648Z,981.14
2019-01-30T12:17:47.623Z,981.13
2019-01-30T12:18:47.612Z,981.16
2019-01-30T12:19:47.600Z,981.19
2019-01-30T12:20:47.590Z,981.11
2019-01-30T12:21:47.607Z,981.10
2019-01-30T12:22:47.571Z,981.23
2019-01-30T12:23:47.571Z,981.21
2019-01-30T12:24:47.551Z,981.19
2019-01-30T12:25:47.535Z,981.22
2019-01-30T12:26:47.536Z,981.22
2019-01-30T12:27:47.513Z,981.23
2019-01-30T12:28:47.504Z,981.28